Time;durP1;ratioP1;P1;durP2;ratioP2;P2;SDS_P1;SDS_P2;PMS_P1;PMS_P2;Temp;Humidity;BMP_temperature;BMP_pressure;BME280_temperature;BME280_humidity;BME280_pressure;Samples;Min_cycle;Max_cycle;Signal;HPM_P1;HPM_P2
2021/12/21 00:01:59;;;;;;;14.18;3.95;;;;;;;-2.55;100.00;102534.97;6249143;28;20050;-76
2021/12/21 00:05:01;;;;;;;8.60;2.58;;;;;;;-2.58;100.00;102534.03;6249478;28;20065;-78
2021/12/21 00:08:05;;;;;;;5.70;3.03;;;;;;;-2.55;100.00;102534.97;6249691;28;20041;-79
2021/12/21 00:11:07;;;;;;;4.65;2.97;;;;;;;-2.56;100.00;102533.22;6249492;28;20485;-79
2021/12/21 00:14:23;;;;;;;6.07;3.10;;;;;;;-2.57;100.00;102533.19;6249239;28;20049;-76
2021/12/21 00:17:46;;;;;;;11.73;4.28;;;;;;;-2.58;100.00;102531.44;6248823;28;20057;-76
2021/12/21 00:20:55;;;;;;;3.10;2.20;;;;;;;-2.56;100.00;102535.78;6248539;28;20049;-76
2021/12/21 00:24:00;;;;;;;;;;;;;;;-2.59;100.00;102522.84;6249344;28;20052;-76
2021/12/21 00:27:08;;;;;;;5.95;3.05;;;;;;;-2.58;100.00;102521.16;6248752;28;20058;-76
2021/12/21 00:30:12;;;;;;;13.48;3.40;;;;;;;-2.62;100.00;102533.06;6248710;28;20045;-77
2021/12/21 00:33:13;;;;;;;6.97;2.97;;;;;;;-2.64;100.00;102532.13;6248688;28;20049;-77
2021/12/21 00:36:16;;;;;;;8.90;3.05;;;;;;;-2.68;100.00;102537.13;6249102;28;20060;-77
2021/12/21 00:39:17;;;;;;;5.60;2.83;;;;;;;-2.69;100.00;102525.09;6248735;28;20046;-76
2021/12/21 00:42:18;;;;;;;6.25;3.33;;;;;;;-2.70;100.00;102524.22;6247698;28;20598;-77
2021/12/21 00:45:21;;;;;;;3.50;2.83;;;;;;;-2.73;100.00;102518.09;6249027;28;20505;-77
2021/12/21 00:48:27;;;;;;;4.50;2.88;;;;;;;-2.71;100.00;102525.06;6248442;28;20489;-77
2021/12/21 00:51:29;;;;;;;9.15;2.67;;;;;;;-2.75;100.00;102523.22;6248481;28;20053;-76
2021/12/21 00:54:30;;;;;;;3.92;2.50;;;;;;;-2.77;100.00;102518.84;6248743;28;20053;-77
2021/12/21 00:57:31;;;;;;;5.13;3.20;;;;;;;-2.81;100.00;102523.06;6248366;28;20049;-77
2021/12/21 01:00:34;;;;;;;3.75;1.80;;;;;;;-2.86;100.00;102527.16;6248284;28;20707;-76
2021/12/21 01:03:41;;;;;;;6.47;1.63;;;;;;;-2.86;100.00;102525.47;6248248;28;20056;-76
2021/12/21 01:06:48;;;;;;;4.13;2.22;;;;;;;-2.84;100.00;102523.81;6248520;28;20053;-76
2021/12/21 01:10:17;;;;;;;5.63;2.63;;;;;;;-2.86;100.00;102527.16;6247941;28;20045;-77
2021/12/21 01:13:42;;;;;;;4.95;2.85;;;;;;;-2.87;100.00;102527.97;6248466;28;20420;-76
2021/12/21 01:16:57;;;;;;;4.53;2.10;;;;;;;-2.91;100.00;102521.88;6248502;28;20053;-77
2021/12/21 01:20:04;;;;;;;8.30;2.38;;;;;;;-2.85;100.00;102522.06;6247700;28;20056;-77
2021/12/21 01:23:38;;;;;;;4.07;1.90;;;;;;;-2.86;100.00;102522.00;6247378;28;20049;-77
2021/12/21 01:26:51;;;;;;;5.40;2.45;;;;;;;-2.88;100.00;102523.69;6247476;28;20464;-76
2021/12/21 01:30:04;;;;;;;3.58;2.30;;;;;;;-2.90;100.00;102517.63;6247444;28;20424;-76
2021/12/21 01:33:20;;;;;;;5.70;2.78;;;;;;;-2.92;100.00;102514.97;6247452;28;20566;-76
2021/12/21 01:36:28;;;;;;;4.72;2.17;;;;;;;-2.91;100.00;102503.88;6247409;28;20397;-76
2021/12/21 01:43:17;;;;;;;3.78;2.78;;;;;;;-2.96;100.00;102502.84;6195728;28;20082;-76
2021/12/21 01:49:42;;;;;;;;;;;;;;;-2.99;100.00;102505.34;6247102;28;20046;-76
2021/12/21 01:52:43;;;;;;;0.90;0.90;;;;;;;-3.00;100.00;102505.28;6247366;28;19920;-76
2021/12/21 01:55:45;;;;;;;1.38;1.17;;;;;;;-2.99;100.00;102501.91;6246557;28;20053;-76
2021/12/21 01:58:46;;;;;;;4.57;2.50;;;;;;;-3.04;100.00;102499.19;6247295;28;20053;-76
2021/12/21 02:01:47;;;;;;;5.32;2.45;;;;;;;-3.04;100.00;102494.06;6246665;28;20053;-76
2021/12/21 02:04:52;;;;;;;4.13;2.72;;;;;;;-3.02;100.00;102504.38;6246827;28;20054;-76
2021/12/21 02:07:53;;;;;;;3.25;2.15;;;;;;;-3.04;100.00;102509.50;6246893;28;20053;-76
2021/12/21 02:10:59;;;;;;;3.10;2.50;;;;;;;-3.14;100.00;102502.28;6246498;28;20045;-76
2021/12/21 02:14:00;;;;;;;5.22;2.55;;;;;;;-3.29;100.00;102500.13;6246959;28;20516;-76
2021/12/21 02:17:21;;;;;;;4.88;2.92;;;;;;;-3.24;100.00;102506.28;6246695;28;20064;-76
2021/12/21 02:20:37;;;;;;;3.90;2.35;;;;;;;-3.17;100.00;102497.06;6245865;28;20057;-76
2021/12/21 02:23:41;;;;;;;5.70;3.15;;;;;;;-3.17;100.00;102497.06;6235813;28;20153;-76
2021/12/21 02:26:49;;;;;;;2.85;2.10;;;;;;;-3.18;100.00;102491.06;6246611;28;20392;-76
2021/12/21 02:29:50;;;;;;;6.30;2.90;;;;;;;-3.18;100.00;102496.22;6246143;28;20042;-76
2021/12/21 02:32:53;;;;;;;6.28;3.17;;;;;;;-3.21;100.00;102492.66;6246509;28;20076;-76
2021/12/21 02:35:57;;;;;;;8.02;2.30;;;;;;;-3.21;100.00;102490.09;6246712;28;20412;-77
2021/12/21 02:38:58;;;;;;;6.45;2.55;;;;;;;-3.25;100.00;102486.53;6246582;28;20132;-77
2021/12/21 02:41:59;;;;;;;2.83;1.92;;;;;;;-3.32;100.00;102482.03;6246406;28;20053;-76
2021/12/21 02:45:01;;;;;;;8.52;2.95;;;;;;;-3.30;100.00;102475.25;6246573;28;20436;-76
2021/12/21 02:48:02;;;;;;;4.82;2.67;;;;;;;-3.28;100.00;102480.44;6246347;28;20057;-77
2021/12/21 02:51:05;;;;;;;4.82;2.72;;;;;;;-3.29;100.00;102476.97;6245888;28;20042;-76
2021/12/21 02:54:07;;;;;;;3.80;2.83;;;;;;;-3.29;100.00;102471.84;6246280;28;20053;-76
2021/12/21 02:57:08;;;;;;;4.45;3.00;;;;;;;-3.30;100.00;102459.81;6246254;28;20057;-76
2021/12/21 03:00:12;;;;;;;3.40;2.05;;;;;;;-3.28;100.00;102460.72;6246162;28;20072;-76
2021/12/21 03:03:14;;;;;;;5.82;3.40;;;;;;;-3.27;100.00;102459.94;6246135;28;20054;-76
2021/12/21 03:06:44;;;;;;;3.50;2.20;;;;;;;-3.29;100.00;102453.84;6247817;28;20060;-76
2021/12/21 03:09:54;;;;;;;3.67;2.20;;;;;;;-3.36;100.00;102457.03;6236852;28;20049;-76
2021/12/21 03:16:17;;;;;;;5.10;2.38;;;;;;;-3.41;100.00;102459.47;6225087;28;20132;-76
2021/12/21 03:19:19;;;;;;;2.58;2.08;;;;;;;-3.41;100.00;102474.03;6250303;28;20042;-76
2021/12/21 03:22:22;;;;;;;4.15;2.20;;;;;;;-3.41;100.00;102461.16;6249724;28;20053;-76
2021/12/21 03:25:23;;;;;;;4.10;2.38;;;;;;;-3.41;100.00;102461.16;6248870;28;20060;-76
2021/12/21 03:28:24;;;;;;;3.30;2.28;;;;;;;-3.40;100.00;102461.25;6250043;28;20049;-76
2021/12/21 03:31:26;;;;;;;4.53;2.72;;;;;;;-3.47;100.00;102459.28;6249659;28;20445;-76
2021/12/21 03:34:28;;;;;;;5.07;2.90;;;;;;;-3.51;100.00;102462.59;6250215;28;20520;-76
2021/12/21 03:37:31;;;;;;;4.80;3.13;;;;;;;-3.55;100.00;102460.72;6250272;28;20049;-76
2021/12/21 03:40:33;;;;;;;2.40;1.83;;;;;;;-3.60;100.00;102452.00;6249770;28;20489;-76
2021/12/21 03:43:34;;;;;;;2.10;1.70;;;;;;;-3.62;100.00;102457.09;6249949;28;20056;-76
2021/12/21 03:46:43;;;;;;;6.95;2.35;;;;;;;-3.59;100.00;102454.66;6249580;28;20057;-76
2021/12/21 03:49:57;;;;;;;2.90;1.98;;;;;;;-3.60;100.00;102459.72;6249562;28;20057;-76
2021/12/21 03:53:00;;;;;;;6.95;3.33;;;;;;;-3.66;100.00;102467.25;6249714;28;20493;-76
2021/12/21 03:56:15;;;;;;;5.13;1.75;;;;;;;-3.68;100.00;102462.06;6249763;28;20053;-76
2021/12/21 03:59:17;;;;;;;4.15;2.58;;;;;;;-3.71;100.00;102459.38;6249222;28;20049;-76
2021/12/21 04:02:19;;;;;;;2.50;1.52;;;;;;;-3.70;100.00;102457.69;6249389;28;20056;-76
2021/12/21 04:05:21;;;;;;;3.95;1.85;;;;;;;-3.73;100.00;102463.56;6249291;28;20049;-76
2021/12/21 04:08:23;;;;;;;3.17;2.67;;;;;;;-3.71;100.00;102456.81;6249595;28;20054;-76
2021/12/21 04:11:25;;;;;;;4.75;2.30;;;;;;;-3.66;100.00;102467.25;6249055;28;20401;-76
2021/12/21 04:14:26;;;;;;;3.22;2.47;;;;;;;-3.64;100.00;102458.72;6249490;28;20053;-77
2021/12/21 04:17:28;;;;;;;7.43;3.65;;;;;;;-3.67;100.00;102461.22;6248939;28;20050;-76
2021/12/21 04:20:29;;;;;;;8.23;2.80;;;;;;;-3.64;100.00;102461.31;6248040;28;20046;-77
2021/12/21 04:23:32;;;;;;;4.35;2.25;;;;;;;-3.62;100.00;102462.25;6249044;28;20049;-76
2021/12/21 04:26:35;;;;;;;7.03;3.67;;;;;;;-3.66;100.00;102462.97;6245887;28;20045;-76
2021/12/21 04:29:36;;;;;;;2.63;1.83;;;;;;;-3.67;100.00;102468.06;6252741;28;20053;-76
2021/12/21 04:32:37;;;;;;;6.50;3.30;;;;;;;-3.65;100.00;102459.56;6248584;28;20045;-76
2021/12/21 04:35:39;;;;;;;5.30;2.08;;;;;;;-3.64;100.00;102457.88;6247765;28;20048;-76
2021/12/21 04:38:46;;;;;;;3.63;2.28;;;;;;;-3.67;100.00;102461.22;6248560;28;20054;-76
2021/12/21 04:41:47;;;;;;;3.53;2.13;;;;;;;-3.68;100.00;102462.06;6248018;28;20046;-76
2021/12/21 04:44:48;;;;;;;4.07;2.45;;;;;;;-3.69;100.00;102465.44;6247076;28;20053;-76
2021/12/21 04:47:50;;;;;;;7.47;3.00;;;;;;;-3.69;100.00;102469.69;6247743;28;20062;-77
2021/12/21 04:50:52;;;;;;;7.55;3.67;;;;;;;-3.77;100.00;102466.00;6248101;28;20052;-76
2021/12/21 04:53:54;;;;;;;4.72;3.25;;;;;;;-3.76;100.00;102460.06;6248570;28;20049;-77
2021/12/21 04:56:56;;;;;;;4.72;2.95;;;;;;;-3.78;100.00;102461.69;6248188;28;20045;-76
2021/12/21 04:59:57;;;;;;;4.93;2.25;;;;;;;-3.75;100.00;102457.53;6247941;28;20117;-77
2021/12/21 05:02:58;;;;;;;6.18;3.58;;;;;;;-3.77;100.00;102455.72;6248230;28;20489;-76
2021/12/21 05:06:00;;;;;;;7.90;3.67;;;;;;;-3.80;100.00;102458.22;6247643;28;20663;-76
2021/12/21 05:09:11;;;;;;;4.55;3.20;;;;;;;-3.78;100.00;102454.84;6248049;28;20100;-76
2021/12/21 05:12:13;;;;;;;6.63;2.38;;;;;;;-3.78;100.00;102454.84;6247491;28;20416;-77
2021/12/21 05:15:14;;;;;;;5.80;3.67;;;;;;;-3.78;100.00;102461.69;6248012;28;20045;-76
2021/12/21 05:18:17;;;;;;;4.72;2.88;;;;;;;-3.80;100.00;102460.78;6247715;28;20049;-76
2021/12/21 05:21:18;;;;;;;2.38;1.77;;;;;;;-3.82;100.00;102461.56;6247293;28;20485;-77
2021/12/21 05:24:21;;;;;;;3.75;1.65;;;;;;;-3.78;100.00;102457.41;6247683;28;20045;-76
2021/12/21 05:27:23;;;;;;;4.68;1.70;;;;;;;-3.80;100.00;102456.50;6247391;28;20049;-76
2021/12/21 05:30:25;;;;;;;6.70;3.95;;;;;;;-3.82;100.00;102469.28;6245905;28;20041;-76
2021/12/21 05:33:28;;;;;;;4.32;2.42;;;;;;;-3.75;100.00;102461.81;6247570;28;20049;-76
2021/12/21 05:36:30;;;;;;;3.72;2.90;;;;;;;-3.81;100.00;102467.63;6247572;28;20128;-77
2021/12/21 05:39:40;;;;;;;1.90;1.70;;;;;;;-3.79;100.00;102468.53;6247354;28;20076;-76
2021/12/21 05:42:43;;;;;;;3.47;2.08;;;;;;;-3.80;100.00;102459.06;6247681;28;20049;-77
2021/12/21 05:45:45;;;;;;;5.30;2.15;;;;;;;-3.79;100.00;102460.81;6247719;28;20049;-76
2021/12/21 05:48:48;;;;;;;9.85;3.80;;;;;;;-3.85;100.00;102464.06;6247666;28;20052;-75
2021/12/21 05:51:49;;;;;;;4.10;2.40;;;;;;;-3.92;100.00;102466.38;6246370;28;20050;-76
2021/12/21 05:54:52;;;;;;;7.03;3.40;;;;;;;-3.91;100.00;102455.25;6247244;28;20052;-76
2021/12/21 05:57:53;;;;;;;2.85;2.17;;;;;;;-3.89;100.00;102456.22;6247056;28;20060;-77
2021/12/21 06:00:55;;;;;;;5.35;3.05;;;;;;;-3.88;100.00;102451.09;6246877;28;20049;-76
2021/12/21 06:03:56;;;;;;;10.38;3.78;;;;;;;-3.85;100.00;102455.50;6245900;28;20053;-76
2021/12/21 06:06:58;;;;;;;5.72;3.35;;;;;;;-3.82;100.00;102453.00;6246944;28;20049;-76
2021/12/21 06:10:08;;;;;;;6.35;3.50;;;;;;;-3.80;100.00;102453.06;6246631;28;20052;-76
2021/12/21 06:13:29;;;;;;;8.82;3.65;;;;;;;-3.74;100.00;102456.69;6247031;28;20390;-76
2021/12/21 06:23:26;;;;;;;3.70;2.83;;;;;;;-3.85;100.00;102461.50;6245709;28;20057;-76
2021/12/21 06:26:29;;;;;;;4.28;2.05;;;;;;;-3.85;100.00;102455.50;6239165;28;20072;-76
2021/12/21 06:29:31;;;;;;;6.28;3.30;;;;;;;-3.88;100.00;102455.38;6246712;28;20053;-76
2021/12/21 06:32:33;;;;;;;4.03;1.85;;;;;;;-3.87;100.00;102455.41;6246469;28;20054;-76
2021/12/21 06:35:35;;;;;;;12.35;3.95;;;;;;;-3.86;100.00;102459.75;6246427;28;20049;-76
2021/12/21 06:38:37;;;;;;;4.85;3.45;;;;;;;-3.83;100.00;102464.97;6246524;28;20497;-76
2021/12/21 06:41:40;;;;;;;6.07;3.80;;;;;;;-3.81;100.00;102459.91;6250048;28;20056;-77
2021/12/21 06:44:44;;;;;;;12.73;2.92;;;;;;;-3.84;100.00;102458.09;6251628;28;20049;-77
2021/12/21 06:51:12;;;;;;;5.50;3.67;;;;;;;-3.87;100.00;102468.25;6250684;28;20057;-76
2021/12/21 06:54:14;;;;;;;6.88;2.97;;;;;;;-3.84;100.00;102467.50;6251075;28;20424;-76
2021/12/21 06:57:16;;;;;;;6.13;2.85;;;;;;;-3.82;100.00;102466.72;6251153;28;20049;-77
2021/12/21 07:00:18;;;;;;;7.05;2.55;;;;;;;-3.79;100.00;102483.94;6251603;28;20416;-77
2021/12/21 07:03:20;;;;;;;6.40;3.15;;;;;;;-3.92;100.00;102482.63;6250872;28;20056;-76
2021/12/21 07:06:23;;;;;;;8.25;3.33;;;;;;;-3.92;100.00;102489.47;6242963;28;20132;-76
2021/12/21 07:09:32;;;;;;;9.25;3.35;;;;;;;-3.94;100.00;102484.28;6251342;28;20548;-77
2021/12/21 07:19:10;;;;;;;7.97;3.55;;;;;;;-3.97;100.00;102485.88;6250729;28;20053;-76
2021/12/21 07:22:12;;;;;;;6.60;2.88;;;;;;;-3.92;100.00;102484.34;6250098;28;20056;-77
2021/12/21 07:25:13;;;;;;;6.53;2.80;;;;;;;-3.88;100.00;102478.50;6250333;28;20578;-77
2021/12/21 07:28:16;;;;;;;5.82;3.20;;;;;;;-3.87;100.00;102473.41;6250925;28;20049;-77
2021/12/21 07:31:17;;;;;;;9.32;3.10;;;;;;;-3.84;100.00;102473.50;6245887;28;20054;-77
2021/12/21 07:34:19;;;;;;;6.28;2.78;;;;;;;-3.82;100.00;102471.84;6249323;28;20057;-77
2021/12/21 07:37:20;;;;;;;8.60;4.20;;;;;;;-3.83;100.00;102472.69;6250325;28;20073;-77
2021/12/21 07:40:21;;;;;;;6.20;3.03;;;;;;;-3.83;100.00;102464.97;6250241;28;20050;-77
2021/12/21 07:43:24;;;;;;;10.23;5.05;;;;;;;-3.76;100.00;102466.06;6250387;28;20060;-76
2021/12/21 07:46:26;;;;;;;8.02;4.72;;;;;;;-3.69;100.00;102474.84;6250100;28;20049;-76
2021/12/21 07:49:27;;;;;;;4.10;3.10;;;;;;;-3.69;100.00;102467.13;6249062;28;20053;-77
2021/12/21 07:52:29;;;;;;;14.07;4.97;;;;;;;-3.68;100.00;102485.19;6248350;28;20046;-76
2021/12/21 07:55:30;;;;;;;16.38;3.20;;;;;;;-3.68;100.00;102484.28;6248430;28;20539;-76
2021/12/21 07:58:37;;;;;;;9.60;3.33;;;;;;;-3.68;100.00;102481.72;6253642;28;20055;-76
2021/12/21 08:01:38;;;;;;;8.77;2.75;;;;;;;-3.74;100.00;102487.53;6248161;28;20053;-76
2021/12/21 08:04:41;;;;;;;8.75;2.58;;;;;;;-3.75;100.00;102500.31;6246692;28;20485;-76
2021/12/21 08:07:48;;;;;;;6.22;4.13;;;;;;;-3.98;100.00;102502.13;6248928;28;20132;-76
2021/12/21 08:10:54;;;;;;;9.45;3.83;;;;;;;-4.17;100.00;102498.03;6249845;28;20041;-76
2021/12/21 08:13:57;;;;;;;3.17;2.45;;;;;;;-4.11;100.00;102501.69;6252007;28;20053;-75
2021/12/21 08:16:58;;;;;;;4.20;2.72;;;;;;;-4.14;100.00;102501.56;6248556;28;20542;-76
2021/12/21 08:20:00;;;;;;;8.27;2.78;;;;;;;-4.21;100.00;102496.19;6247764;28;20053;-75
2021/12/21 08:23:01;;;;;;;2.55;2.22;;;;;;;-4.28;100.00;102500.19;6248600;28;20049;-76
2021/12/21 08:26:06;;;;;;;3.83;2.05;;;;;;;-4.27;100.00;102493.38;6247711;28;20064;-76
2021/12/21 08:29:08;;;;;;;2.85;1.58;;;;;;;-4.14;100.00;102493.00;6249008;28;20055;-76
2021/12/21 08:32:10;;;;;;;3.80;2.35;;;;;;;-4.09;100.00;102481.19;6247757;28;20048;-76
2021/12/21 08:35:12;;;;;;;2.20;1.83;;;;;;;-4.09;100.00;102487.22;6244218;28;20046;-76
2021/12/21 08:38:16;;;;;;;2.55;2.05;;;;;;;-4.19;100.00;102487.69;6247253;28;20046;-76
2021/12/21 08:41:20;;;;;;;6.65;1.88;;;;;;;-4.04;100.00;102486.47;6247854;28;20050;-76
2021/12/21 08:44:23;;;;;;;5.78;3.50;;;;;;;-3.99;100.00;102492.66;6247662;28;20053;-76
2021/12/21 08:47:27;;;;;;;4.82;2.10;;;;;;;-4.04;100.00;102496.75;6248408;28;20045;-75
2021/12/21 08:50:29;;;;;;;4.40;2.25;;;;;;;-3.99;100.00;102487.53;6247265;28;20046;-76
2021/12/21 08:53:31;;;;;;;4.47;3.17;;;;;;;-4.11;100.00;102504.25;6248258;28;20187;-75
2021/12/21 08:56:32;;;;;;;4.68;3.15;;;;;;;-3.94;100.00;102511.66;6248411;28;20053;-78
2021/12/21 08:59:35;;;;;;;3.13;2.38;;;;;;;-3.91;100.00;102511.75;6247612;28;20444;-76
2021/12/21 09:02:37;;;;;;;5.15;2.92;;;;;;;-3.88;100.00;102514.44;6247051;28;20045;-75
2021/12/21 09:05:40;;;;;;;3.15;2.33;;;;;;;-3.87;100.00;102514.47;6246341;28;20072;-75
2021/12/21 09:08:42;;;;;;;4.07;2.30;;;;;;;-3.73;100.00;102514.06;6247254;28;20049;-75
2021/12/21 09:11:45;;;;;;;4.15;2.60;;;;;;;-3.61;100.00;102511.94;6246638;28;20060;-75
2021/12/21 09:14:48;;;;;;;2.70;2.33;;;;;;;-3.58;100.00;102504.34;6251197;28;20049;-76
2021/12/21 09:17:50;;;;;;;5.47;2.70;;;;;;;-3.53;100.00;102510.50;6249696;28;20049;-76
2021/12/21 09:20:51;;;;;;;6.82;3.75;;;;;;;-3.63;100.00;102511.03;6247167;28;20060;-76
2021/12/21 09:23:53;;;;;;;2.80;2.28;;;;;;;-3.55;100.00;102509.56;6245561;28;20603;-76
2021/12/21 09:26:54;;;;;;;4.00;2.42;;;;;;;-3.48;100.00;102510.66;6247343;28;20060;-75
2021/12/21 09:29:57;;;;;;;5.72;2.33;;;;;;;-3.40;100.00;102512.63;6244241;28;20053;-76
2021/12/21 09:32:59;;;;;;;5.28;3.45;;;;;;;-3.30;100.00;102510.38;6244086;28;20045;-75
2021/12/21 09:36:00;;;;;;;3.03;2.03;;;;;;;-3.27;100.00;102507.88;6246905;28;20056;-76
2021/12/21 09:39:02;;;;;;;5.53;3.17;;;;;;;-3.16;100.00;102520.25;6247377;28;20049;-76
2021/12/21 09:42:04;;;;;;;3.72;2.28;;;;;;;-3.08;100.00;102515.34;6246780;28;20132;-75
2021/12/21 09:45:08;;;;;;;2.90;2.35;;;;;;;-3.26;100.00;102505.38;6246770;28;20536;-76
2021/12/21 09:48:12;;;;;;;3.05;2.67;;;;;;;-3.16;100.00;102509.97;6247379;28;20057;-76
2021/12/21 09:51:13;;;;;;;3.47;2.75;;;;;;;-3.19;100.00;102520.16;6245976;28;20405;-75
2021/12/21 09:54:18;;;;;;;3.88;2.75;;;;;;;-3.10;100.00;102517.00;6246872;28;20072;-76
2021/12/21 09:57:19;;;;;;;3.63;2.25;;;;;;;-3.03;100.00;102513.81;6249687;28;20041;-76
2021/12/21 10:00:27;;;;;;;4.90;2.85;;;;;;;-2.94;100.00;102519.22;6252208;28;20049;-75
2021/12/21 10:03:29;;;;;;;3.03;2.20;;;;;;;-2.81;100.00;102512.75;6244432;28;20050;-76
2021/12/21 10:06:30;;;;;;;4.97;3.00;;;;;;;-2.75;100.00;102514.63;6246383;28;20056;-75
2021/12/21 10:09:36;;;;;;;7.80;4.28;;;;;;;-2.82;100.00;102511.88;6246656;28;20053;-75
2021/12/21 10:12:40;;;;;;;6.28;3.38;;;;;;;-2.83;100.00;102516.97;6246059;28;20048;-76
2021/12/21 10:15:46;;;;;;;3.28;2.45;;;;;;;-2.84;100.00;102510.94;6246155;28;20053;-76
2021/12/21 10:18:49;;;;;;;5.32;3.22;;;;;;;-2.91;100.00;102513.28;6246258;28;20528;-75
2021/12/21 10:21:51;;;;;;;7.43;2.85;;;;;;;-3.05;100.00;102512.88;6245322;28;20048;-75
2021/12/21 10:24:54;;;;;;;4.20;3.40;;;;;;;-2.92;100.00;102511.53;6245790;28;20436;-75
2021/12/21 10:27:55;;;;;;;4.28;2.47;;;;;;;-2.88;100.00;102513.38;6246053;28;20060;-76
2021/12/21 10:30:59;;;;;;;3.67;2.42;;;;;;;-2.76;100.00;102508.63;6245194;28;20037;-76
2021/12/21 10:34:02;;;;;;;5.25;3.17;;;;;;;-2.64;100.00;102498.66;6246417;28;20056;-76
2021/12/21 10:37:04;;;;;;;4.18;2.65;;;;;;;-2.53;100.00;102505.84;6246119;28;20072;-76
2021/12/21 10:40:16;;;;;;;4.53;2.78;;;;;;;-2.49;100.00;102505.97;6245561;28;20521;-75
2021/12/21 10:43:17;;;;;;;5.65;3.67;;;;;;;-2.49;100.00;102511.13;6246242;28;20068;-76
2021/12/21 10:46:22;;;;;;;4.88;3.60;;;;;;;-2.51;100.00;102510.19;6246456;28;20056;-76
2021/12/21 10:49:25;;;;;;;2.78;2.25;;;;;;;-2.53;100.00;102506.72;6246074;28;20046;-76
2021/12/21 10:52:27;;;;;;;5.50;2.80;;;;;;;-2.51;100.00;102501.59;6244890;28;20041;-75
2021/12/21 10:55:31;;;;;;;2.47;2.28;;;;;;;-2.47;100.00;102506.00;6245948;28;20042;-76
2021/12/21 10:58:32;;;;;;;4.40;2.45;;;;;;;-2.48;100.00;102500.00;6244212;28;20045;-75
2021/12/21 11:01:43;;;;;;;6.03;4.32;;;;;;;-2.52;100.00;102498.16;6242921;28;20596;-75
2021/12/21 11:04:47;;;;;;;5.18;3.80;;;;;;;-2.48;100.00;102481.97;6249017;28;20045;-75
2021/12/21 11:07:53;;;;;;;3.15;2.85;;;;;;;-2.43;100.00;102485.53;6245637;28;20077;-75
2021/12/21 11:10:58;;;;;;;4.00;3.22;;;;;;;-2.45;100.00;102492.38;6242813;28;20065;-75
2021/12/21 11:14:07;;;;;;;4.93;2.92;;;;;;;-2.58;100.00;102486.00;6245596;28;20057;-76
2021/12/21 11:17:09;;;;;;;5.57;3.13;;;;;;;-2.51;100.00;102483.59;6240317;28;20425;-76
2021/12/21 11:20:13;;;;;;;7.60;3.95;;;;;;;-2.52;100.00;102487.88;6245193;28;20046;-76
2021/12/21 11:23:16;;;;;;;6.25;3.28;;;;;;;-2.64;100.00;102484.94;6245918;28;20045;-76
2021/12/21 11:26:18;;;;;;;4.13;2.55;;;;;;;-2.54;100.00;102486.97;6245741;28;20429;-76
2021/12/21 11:29:20;;;;;;;3.83;3.10;;;;;;;-2.63;100.00;102474.69;6249911;28;20489;-76
2021/12/21 11:32:24;;;;;;;7.35;3.75;;;;;;;-2.56;100.00;102489.47;6249796;28;20045;-76
2021/12/21 11:38:48;;;;;;;6.63;3.45;;;;;;;-2.52;100.00;102477.56;6250168;28;20053;-76
2021/12/21 11:41:50;;;;;;;4.25;3.10;;;;;;;-2.44;100.00;102470.06;6248312;28;20049;-76
2021/12/21 11:44:56;;;;;;;7.68;3.92;;;;;;;-2.33;100.00;102472.09;6248853;28;20053;-76
2021/12/21 11:48:07;;;;;;;3.13;2.53;;;;;;;-2.46;100.00;102464.00;6251985;28;20164;-76
2021/12/21 11:51:10;;;;;;;8.18;3.85;;;;;;;-2.49;100.00;102457.06;6245548;28;20052;-76
2021/12/21 11:54:19;;;;;;;7.07;4.28;;;;;;;-2.36;100.00;102450.56;6247893;28;20052;-77
2021/12/21 11:57:22;;;;;;;4.20;2.58;;;;;;;-2.28;100.00;102445.59;6249146;28;20050;-76
2021/12/21 12:00:27;;;;;;;8.40;3.63;;;;;;;-2.33;100.00;102454.06;6249335;28;20054;-76
2021/12/21 12:03:35;;;;;;;6.10;4.13;;;;;;;-2.33;100.00;102454.06;6251129;28;20064;-77
2021/12/21 12:06:46;;;;;;;3.45;2.33;;;;;;;-2.30;100.00;102448.16;6249697;28;20456;-76
2021/12/21 12:09:47;;;;;;;5.53;3.63;;;;;;;-2.24;100.00;102450.88;6249029;28;20045;-76
2021/12/21 12:12:49;;;;;;;3.80;2.95;;;;;;;-2.11;100.00;102452.06;6248859;28;20048;-76
2021/12/21 12:15:54;;;;;;;5.03;3.35;;;;;;;-2.05;100.00;102447.06;6273370;28;20423;-76
2021/12/21 12:19:00;;;;;;;5.25;2.90;;;;;;;-1.92;100.00;102446.56;6266745;28;20049;-76
2021/12/21 12:22:03;;;;;;;4.35;3.38;;;;;;;-2.18;100.00;102445.91;6248339;28;20046;-76
2021/12/21 12:25:07;;;;;;;5.13;3.00;;;;;;;-2.27;100.00;102444.75;6243082;28;20053;-76
2021/12/21 12:28:08;;;;;;;5.72;3.35;;;;;;;-2.41;100.00;102447.84;6247689;28;20060;-76
2021/12/21 12:31:09;;;;;;;7.70;3.00;;;;;;;-2.57;100.00;102440.53;6247696;28;20049;-76
2021/12/21 12:34:23;;;;;;;7.30;3.20;;;;;;;-2.46;100.00;102443.41;6249055;28;20060;-76
2021/12/21 12:37:25;;;;;;;4.15;2.92;;;;;;;-2.43;100.00;102438.34;6245859;28;20050;-76
2021/12/21 12:40:30;;;;;;;5.97;3.60;;;;;;;-2.31;100.00;102421.53;6248370;28;20053;-75
2021/12/21 12:43:33;;;;;;;2.92;2.25;;;;;;;-2.17;100.00;102421.03;6249102;28;20061;-76
2021/12/21 12:46:36;;;;;;;7.38;3.58;;;;;;;-2.09;100.00;102414.34;6247822;28;20156;-78
2021/12/21 12:49:48;;;;;;;10.05;5.00;;;;;;;-2.06;100.00;102409.28;6248010;28;20060;-77
2021/12/21 12:52:54;;;;;;;4.38;3.25;;;;;;;-2.02;100.00;102418.81;6247116;28;20132;-76
2021/12/21 12:55:58;;;;;;;7.15;4.15;;;;;;;-2.00;100.00;102406.84;6246136;28;20057;-76
2021/12/21 12:59:02;;;;;;;5.30;3.67;;;;;;;-1.93;100.00;102413.03;6248747;28;20053;-76
2021/12/21 13:02:08;;;;;;;6.95;4.20;;;;;;;-1.92;100.00;102415.63;6247488;28;20420;-76
2021/12/21 13:05:11;;;;;;;4.90;3.45;;;;;;;-2.10;100.00;102400.59;6246633;28;20060;-77
2021/12/21 13:08:14;;;;;;;6.45;4.28;;;;;;;-2.13;100.00;102405.69;6248894;28;20053;-76
2021/12/21 13:11:20;;;;;;;4.47;3.00;;;;;;;-2.18;100.00;102407.28;6247348;28;20056;-76
2021/12/21 13:14:21;;;;;;;8.82;4.40;;;;;;;-2.11;100.00;102421.16;6247470;28;20042;-76
2021/12/21 13:17:24;;;;;;;4.72;3.88;;;;;;;-2.14;100.00;102406.50;6247487;28;20401;-76
2021/12/21 13:20:28;;;;;;;7.70;4.38;;;;;;;-2.08;100.00;102414.41;6247143;28;20053;-76
2021/12/21 13:23:30;;;;;;;4.18;2.95;;;;;;;-2.09;100.00;102419.50;6248131;28;20049;-76
2021/12/21 13:26:35;;;;;;;8.23;4.15;;;;;;;-2.14;100.00;102419.38;6247199;28;20138;-76
2021/12/21 13:29:37;;;;;;;7.85;3.95;;;;;;;-2.12;100.00;102420.31;6246341;28;20508;-77
2021/12/21 13:32:38;;;;;;;4.47;3.28;;;;;;;-2.16;100.00;102423.63;6245418;28;20049;-76
2021/12/21 13:35:44;;;;;;;5.10;3.05;;;;;;;-2.13;100.00;102423.72;6244461;28;20053;-76
2021/12/21 13:38:45;;;;;;;3.35;2.92;;;;;;;-2.10;100.00;102420.34;6245869;28;20050;-77
2021/12/21 13:41:49;;;;;;;8.93;3.22;;;;;;;-2.06;100.00;102417.00;6244702;28;20050;-76
2021/12/21 13:44:53;;;;;;;6.72;4.03;;;;;;;-2.00;100.00;102417.16;6245122;28;20053;-76
2021/12/21 13:47:55;;;;;;;5.72;3.97;;;;;;;-1.98;100.00;102414.63;6244851;28;20049;-75
2021/12/21 13:51:09;;;;;;;3.28;2.88;;;;;;;-2.16;100.00;102405.59;6241835;28;20060;-76
2021/12/21 13:54:16;;;;;;;3.20;2.60;;;;;;;-2.26;100.00;102406.19;6244985;28;20416;-75
2021/12/21 13:57:17;;;;;;;4.00;3.15;;;;;;;-2.16;100.00;102412.47;6243142;28;20052;-74
2021/12/21 14:00:20;;;;;;;7.75;3.70;;;;;;;-2.27;100.00;102437.03;6244594;28;20405;-74
2021/12/21 14:03:31;;;;;;;7.82;3.50;;;;;;;-2.23;100.00;102429.44;6244971;28;20042;-77
2021/12/21 14:06:36;;;;;;;8.50;4.47;;;;;;;-2.20;100.00;102436.38;6244161;28;20480;-76
2021/12/21 14:09:37;;;;;;;7.10;3.15;;;;;;;-2.25;100.00;102436.25;6242533;28;20512;-75
2021/12/21 14:12:39;;;;;;;5.78;3.60;;;;;;;-2.26;100.00;102426.81;6250322;28;20037;-75
2021/12/21 14:15:43;;;;;;;4.28;2.55;;;;;;;-2.27;100.00;102432.78;6270996;28;20049;-74
2021/12/21 14:18:48;;;;;;;4.53;3.17;;;;;;;-2.18;100.00;102430.44;6264438;28;20068;-75
2021/12/21 14:21:55;;;;;;;4.60;2.90;;;;;;;-2.25;100.00;102430.25;6243222;28;20049;-76
2021/12/21 14:24:56;;;;;;;4.70;3.38;;;;;;;-2.28;100.00;102427.56;6244673;28;20149;-76
2021/12/21 14:28:07;;;;;;;6.10;3.30;;;;;;;-2.27;100.00;102434.47;6244616;28;20053;-76
2021/12/21 14:31:09;;;;;;;5.53;3.45;;;;;;;-2.26;100.00;102433.66;6257440;28;20248;-76
2021/12/21 14:34:12;;;;;;;6.97;4.20;;;;;;;-2.25;100.00;102435.41;6266118;28;20432;-76
2021/12/21 14:37:17;;;;;;;3.80;2.90;;;;;;;-2.25;100.00;102431.13;6243588;28;20041;-77